Lonetree, Wyoming
Current Conditions -  °F | °C
As of 2:55 AM on Saturday 25 Oct 2014 (Local Time) from KFBR Reporting Station
Clear Clear  
Wind Chill:   Ceiling: Unl
Heat Index:   Visibility: NA
Dew Point: -7°   Wind: 0mph
Humidity: 32%   Direction: NA
Pressure: 30.3"   Gusts: NA
Location:  41.0297°N, 110.145°W
Report Text: KFBR 250855Z AUTO 00000KT CLR 09/M07 A3030 RMK AO2 T00861073 PWINO
Loading
Personal Weather Stations






























Interactive Weather Map
Tropical Storm Tracking
New forecast layout! Learn more

10-Day Weather Forecast

Advertisements
Track Severe Weather on mobile